LWSK/SKP METAR and TAF weather

Enter ICAO airport designator
Station Type Date Time Source
LWSK METAR 2024/04/15 08:50 UTC NOAA

LWSK 150850Z VRB02KT CAVOK 22/13 Q1019 NOSIG


Station Type Date Time Source
LWSK Decoded METAR 2024/04/15 08:50 UTC NOAA

Skopje-Petrovec, Macedonia, The Republic of (LWSK) 41-58N 021-39E 239M
Apr 15, 2024 - 04:50 AM EDT / 2024.04.15 0850 UTC
Wind: Variable at 2 MPH (2 KT):0
Visibility: greater than 7 mile(s):0
Temperature: 71 F (22 C)
Dew Point: 55 F (13 C)
Relative Humidity: 56%
Pressure (altimeter): 30.09 in. Hg (1019 hPa)
ob: LWSK 150850Z VRB02KT CAVOK 22/13 Q1019 NOSIG
cycle: 9

Station Type Date Time Source
LWSK TAF 2024/04/15 09:26 UTC NOAA